Time;durP1;ratioP1;P1;durP2;ratioP2;P2;SDS_P1;SDS_P2;PMS_P1;PMS_P2;Temp;Humidity;BMP_temperature;BMP_pressure;BME280_temperature;BME280_humidity;BME280_pressure;Samples;Min_cycle;Max_cycle;Signal;HPM_P1;HPM_P2
2022/07/22 00:02:01;;;;;;;3.33;3.13;;;;;;;22.51;77.18;95830.31;4398354;32;20260;-55
2022/07/22 00:04:26;;;;;;;3.30;3.10;;;;;;;22.51;77.36;95824.91;4392591;32;20204;-56
2022/07/22 00:06:52;;;;;;;17.73;3.83;;;;;;;22.49;77.29;95827.19;4391978;32;20188;-54
2022/07/22 00:09:19;;;;;;;3.70;3.07;;;;;;;22.52;77.28;95826.47;4394394;32;20205;-53
2022/07/22 00:11:45;;;;;;;2.43;2.33;;;;;;;22.38;77.04;95820.78;4391687;32;20255;-55
2022/07/22 00:14:12;;;;;;;2.90;2.80;;;;;;;22.45;77.09;95820.91;4392815;32;20202;-53
2022/07/22 00:16:39;;;;;;;2.90;2.80;;;;;;;22.46;76.99;95813.59;4388717;32;20231;-56
2022/07/22 00:19:06;;;;;;;3.10;2.90;;;;;;;22.45;76.92;95809.31;4384878;32;20322;-55
2022/07/22 00:21:37;;;;;;;3.10;2.90;;;;;;;22.33;76.38;95812.97;4365762;32;20295;-51
2022/07/22 00:24:02;;;;;;;2.17;2.07;;;;;;;22.32;76.77;95816.81;4378738;32;20290;-53
2022/07/22 00:26:29;;;;;;;2.30;2.20;;;;;;;22.27;77.02;95808.97;4376390;32;20196;-54
2022/07/22 00:28:55;;;;;;;3.43;3.23;;;;;;;22.22;77.25;95807.34;4397347;32;20207;-55
2022/07/22 00:31:22;;;;;;;3.00;2.80;;;;;;;22.17;77.21;95806.84;4393007;32;20203;-55
2022/07/22 00:33:48;;;;;;;3.63;3.33;;;;;;;22.15;77.43;95803.72;4382109;32;20192;-54
2022/07/22 00:36:14;;;;;;;2.43;2.23;;;;;;;22.09;77.34;95803.22;4368727;32;20203;-54
2022/07/22 00:38:39;;;;;;;2.67;2.57;;;;;;;22.15;77.44;95792.91;4404064;32;20184;-55
2022/07/22 00:41:08;;;;;;;2.83;2.73;;;;;;;22.07;77.07;95800.06;4401407;32;20262;-55
2022/07/22 00:43:57;;;;;;;2.53;2.43;;;;;;;22.20;77.42;95798.81;4387153;32;20259;-53
2022/07/22 00:46:24;;;;;;;3.70;2.47;;;;;;;22.11;76.82;95797.44;4386027;32;20184;-56
2022/07/22 00:48:51;;;;;;;3.23;3.03;;;;;;;22.17;76.94;95798.75;4373701;32;20199;-54
2022/07/22 00:51:19;;;;;;;2.77;2.57;;;;;;;22.21;76.61;95788.78;4364763;32;20203;-54
2022/07/22 00:53:47;;;;;;;2.73;2.63;;;;;;;22.23;76.50;95791.91;4392482;32;20253;-54
2022/07/22 00:56:13;;;;;;;2.37;2.27;;;;;;;22.21;76.49;95794.19;4380050;32;20214;-52
2022/07/22 00:58:40;;;;;;;3.37;3.17;;;;;;;22.24;76.65;95794.25;4385960;32;20198;-54
2022/07/22 01:01:07;;;;;;;2.37;2.27;;;;;;;22.25;76.32;95790.41;4396689;32;20239;-54
2022/07/22 01:03:33;;;;;;;3.23;3.03;;;;;;;22.27;76.17;95790.03;4363981;32;20188;-56
2022/07/22 01:05:59;;;;;;;2.87;2.77;;;;;;;22.23;75.71;95786.50;4363414;32;20208;-54
2022/07/22 01:08:26;;;;;;;5.40;2.60;;;;;;;22.25;75.66;95786.91;4386444;32;20201;-52
2022/07/22 01:11:05;;;;;;;2.07;2.03;;;;;;;22.21;75.83;95788.78;4386743;32;20214;-52
2022/07/22 01:13:31;;;;;;;2.10;2.03;;;;;;;22.20;75.67;95782.59;4375836;32;20262;-55
2022/07/22 01:15:58;;;;;;;2.70;2.60;;;;;;;22.20;75.57;95788.00;4385465;32;20212;-53
2022/07/22 01:18:24;;;;;;;2.77;2.57;;;;;;;22.21;75.64;95783.38;4376650;32;20224;-54
2022/07/22 01:20:50;;;;;;;4.47;3.00;;;;;;;22.21;75.88;95777.97;4384576;32;20192;-55
2022/07/22 01:23:17;;;;;;;2.10;2.00;;;;;;;22.24;75.65;95782.62;4360907;32;20199;-54
2022/07/22 01:25:43;;;;;;;2.87;2.50;;;;;;;22.17;75.30;95779.81;4344290;32;20189;-56
2022/07/22 01:28:09;;;;;;;1.97;1.87;;;;;;;22.20;75.32;95776.41;4380904;32;20194;-55
2022/07/22 01:30:36;;;;;;;1.97;1.87;;;;;;;22.18;75.22;95778.69;4365560;32;20263;-54
2022/07/22 01:33:04;;;;;;;2.50;2.40;;;;;;;22.12;75.04;95774.69;4394271;32;20316;-54
2022/07/22 01:35:31;;;;;;;2.10;2.00;;;;;;;22.18;75.51;95778.69;4387936;32;20183;-55
2022/07/22 01:37:58;;;;;;;2.20;2.10;;;;;;;22.17;75.40;95777.13;4403195;32;20239;-53
2022/07/22 01:40:25;;;;;;;3.17;2.97;;;;;;;22.16;75.30;95779.03;4372111;32;20226;-53
2022/07/22 01:42:50;;;;;;;2.60;2.50;;;;;;;22.15;75.26;95780.19;4373322;32;20215;-54
2022/07/22 01:45:17;;;;;;;2.47;2.37;;;;;;;22.16;75.25;95776.34;4391960;32;20187;-56
2022/07/22 01:47:43;;;;;;;2.93;2.83;;;;;;;22.07;75.33;95774.97;4403939;32;20227;-55
2022/07/22 01:50:12;;;;;;;2.20;2.10;;;;;;;22.09;75.15;95778.87;4372971;32;20204;-54
2022/07/22 01:52:39;;;;;;;4.33;2.80;;;;;;;22.02;75.08;95770.66;4390957;32;20265;-56
2022/07/22 01:55:08;;;;;;;2.37;2.27;;;;;;;21.98;75.45;95774.38;4391077;32;20282;-55
2022/07/22 01:57:38;;;;;;;2.30;2.20;;;;;;;22.00;75.53;95777.50;4403485;32;20336;-55
2022/07/22 02:00:07;;;;;;;2.30;2.20;;;;;;;21.99;75.68;95776.72;4398872;32;20275;-55
2022/07/22 02:02:32;;;;;;;2.17;2.07;;;;;;;22.02;75.55;95769.88;4372120;32;20310;-54
2022/07/22 02:04:58;;;;;;;1.90;1.83;;;;;;;22.03;75.39;95777.59;4375571;32;20264;-51
2022/07/22 02:07:25;;;;;;;2.37;2.27;;;;;;;22.02;75.20;95776.06;4339181;32;20239;-56
2022/07/22 02:09:52;;;;;;;2.27;2.17;;;;;;;22.01;75.38;95773.72;4379307;32;20234;-54
2022/07/22 02:12:19;;;;;;;2.37;2.27;;;;;;;22.05;75.28;95772.63;4365847;32;20229;-54
2022/07/22 02:14:44;;;;;;;2.93;2.83;;;;;;;22.03;75.28;95771.44;4368274;32;20192;-52
2022/07/22 02:17:21;;;;;;;1.87;1.80;;;;;;;22.01;75.05;95779.91;4387420;32;20199;-56
2022/07/22 02:19:46;;;;;;;3.20;3.00;;;;;;;22.01;75.06;95762.91;4383936;32;20215;-51
2022/07/22 02:22:13;;;;;;;2.40;2.30;;;;;;;22.01;75.16;95765.59;4395053;32;20196;-53
2022/07/22 02:24:43;;;;;;;3.07;2.83;;;;;;;21.98;75.07;95774.38;4394202;32;20249;-54
2022/07/22 02:27:11;;;;;;;2.70;2.50;;;;;;;21.95;74.96;95775.88;4370525;32;20215;-53
2022/07/22 02:29:38;;;;;;;2.67;2.57;;;;;;;21.95;75.27;95770.47;4367695;32;20188;-54
2022/07/22 02:32:06;;;;;;;2.40;2.30;;;;;;;21.90;75.28;95774.22;4386670;32;20210;-54
2022/07/22 02:34:32;;;;;;;2.10;2.07;;;;;;;21.90;75.24;95766.13;4384328;32;20241;-55
2022/07/22 02:36:57;;;;;;;3.23;2.13;;;;;;;21.83;75.05;95773.28;4383169;32;20219;-53
2022/07/22 02:39:24;;;;;;;2.90;2.10;;;;;;;21.88;75.47;95765.69;4405757;32;20230;-54
2022/07/22 02:41:49;;;;;;;2.20;2.10;;;;;;;21.88;75.19;95771.09;4394016;32;20212;-55
2022/07/22 02:44:15;;;;;;;1.77;1.77;;;;;;;21.87;75.15;95772.22;4403550;32;20226;-54
2022/07/22 02:46:40;;;;;;;3.00;2.63;;;;;;;21.88;75.29;95771.09;4395457;32;20198;-55
2022/07/22 02:49:07;;;;;;;2.53;2.43;;;;;;;21.86;75.31;95772.56;4378452;32;20187;-54
2022/07/22 02:51:32;;;;;;;6.90;2.10;;;;;;;21.88;75.35;95771.09;4363439;32;20337;-52
2022/07/22 02:53:59;;;;;;;3.03;2.83;;;;;;;21.87;75.38;95776.84;4401675;32;20215;-54
2022/07/22 02:56:26;;;;;;;2.33;2.23;;;;;;;21.84;75.25;95772.94;4369633;32;20200;-55
2022/07/22 02:58:53;;;;;;;2.67;2.40;;;;;;;21.85;75.26;95769.09;4379491;32;20252;-56
2022/07/22 03:01:30;;;;;;;2.70;2.10;;;;;;;21.85;75.18;95774.50;4386941;32;20195;-55
2022/07/22 03:03:55;;;;;;;2.73;2.63;;;;;;;21.84;75.71;95775.62;4378234;32;20245;-55
2022/07/22 03:06:23;;;;;;;2.40;2.27;;;;;;;21.85;75.34;95777.19;4384615;32;20204;-55
2022/07/22 03:08:49;;;;;;;2.67;2.57;;;;;;;21.78;75.62;95777.06;4390706;32;20240;-54
2022/07/22 03:11:15;;;;;;;2.00;1.90;;;;;;;21.75;75.59;95769.66;4384096;32;20192;-54
2022/07/22 03:13:41;;;;;;;2.47;2.27;;;;;;;21.78;75.51;95776.28;4403974;32;20184;-55
2022/07/22 03:16:08;;;;;;;2.93;2.83;;;;;;;21.71;75.74;95766.09;4396082;32;20235;-53
2022/07/22 03:18:35;;;;;;;2.57;2.47;;;;;;;21.66;75.98;95765.59;4388515;32;20195;-55
2022/07/22 03:21:00;;;;;;;2.63;2.43;;;;;;;21.65;75.97;95769.41;4368879;32;20207;-52
2022/07/22 03:23:27;;;;;;;3.00;2.90;;;;;;;21.65;76.14;95766.72;4393236;32;20255;-54
2022/07/22 03:25:56;;;;;;;2.93;2.73;;;;;;;21.68;76.10;95772.22;4381569;32;20188;-54
2022/07/22 03:28:22;;;;;;;2.63;2.53;;;;;;;21.73;75.95;95765.75;4376051;32;20191;-52
2022/07/22 03:30:49;;;;;;;1.87;1.77;;;;;;;21.76;75.84;95768.53;4341883;32;20203;-56
2022/07/22 03:33:14;;;;;;;2.13;2.03;;;;;;;21.76;75.64;95768.53;4382492;32;20286;-54
2022/07/22 03:35:40;;;;;;;4.07;3.23;;;;;;;21.78;75.63;95774.38;4344378;32;20232;-54
2022/07/22 03:38:05;;;;;;;3.37;3.27;;;;;;;21.79;75.61;95770.53;4400030;32;20199;-52
2022/07/22 03:40:31;;;;;;;2.50;2.40;;;;;;;21.80;75.54;95774.81;4362952;32;20269;-51
2022/07/22 03:42:58;;;;;;;3.77;3.47;;;;;;;21.80;75.42;95777.50;4362770;32;20184;-54
2022/07/22 03:45:24;;;;;;;2.47;2.37;;;;;;;21.80;75.45;95771.31;4393026;32;20223;-55
2022/07/22 03:47:49;;;;;;;1.57;1.57;;;;;;;21.79;75.45;95772.44;4386392;32;20216;-55
2022/07/22 03:50:14;;;;;;;2.20;2.10;;;;;;;21.79;75.45;95772.44;4399948;32;20188;-54
2022/07/22 03:52:41;;;;;;;2.43;2.33;;;;;;;21.76;75.53;95773.94;4398711;32;20215;-52
2022/07/22 03:55:08;;;;;;;2.57;2.47;;;;;;;21.78;75.56;95777.06;4391989;32;20279;-56
2022/07/22 03:57:33;;;;;;;3.00;2.87;;;;;;;21.82;75.30;95777.91;4381134;32;20267;-55
2022/07/22 04:00:01;;;;;;;2.53;2.43;;;;;;;21.68;75.59;95784.94;4378121;32;20240;-52
2022/07/22 04:02:28;;;;;;;3.00;2.80;;;;;;;21.68;75.73;95793.03;4363520;32;20241;-54
2022/07/22 04:04:53;;;;;;;2.80;2.67;;;;;;;21.73;75.59;95785.44;4358918;32;20196;-55
2022/07/22 04:07:20;;;;;;;3.00;2.83;;;;;;;21.76;75.37;95779.34;4358338;32;20188;-54
2022/07/22 04:09:46;;;;;;;2.13;2.03;;;;;;;21.73;75.36;95779.25;4388533;32;20206;-53
2022/07/22 04:12:14;;;;;;;1.80;1.80;;;;;;;21.77;75.23;95780.91;4384067;32;20188;-56
2022/07/22 04:14:40;;;;;;;2.50;2.40;;;;;;;21.74;75.14;95780.81;4398148;32;20260;-52
2022/07/22 04:17:07;;;;;;;2.07;1.97;;;;;;;21.81;75.12;95775.59;4396103;32;20203;-55
2022/07/22 04:19:33;;;;;;;2.47;2.37;;;;;;;21.82;75.29;95771.75;4405603;32;20305;-55
2022/07/22 04:22:00;;;;;;;2.90;2.80;;;;;;;21.77;75.04;95778.19;4364396;32;20236;-56
2022/07/22 04:24:25;;;;;;;2.57;2.47;;;;;;;21.76;75.14;95773.16;4372336;32;20202;-55
2022/07/22 04:26:53;;;;;;;3.30;3.00;;;;;;;21.66;75.44;95774.47;4390690;32;20192;-52
2022/07/22 04:29:20;;;;;;;8.73;3.33;;;;;;;21.67;75.58;95772.56;4399523;32;20196;-56
2022/07/22 04:31:46;;;;;;;4.07;3.37;;;;;;;21.72;75.27;95778.47;4371564;32;20205;-55
2022/07/22 04:34:13;;;;;;;5.90;3.27;;;;;;;21.68;75.37;95774.91;4376491;32;20196;-54
2022/07/22 04:36:40;;;;;;;3.30;3.10;;;;;;;21.73;75.31;95769.25;4402902;32;20203;-54
2022/07/22 04:39:06;;;;;;;2.83;2.37;;;;;;;21.76;75.20;95770.44;4393124;32;20231;-52
2022/07/22 04:41:33;;;;;;;1.93;1.83;;;;;;;21.72;75.21;95773.06;4401001;32;23224;-54
2022/07/22 04:43:58;;;;;;;2.93;2.83;;;;;;;21.75;75.43;95766.19;4389944;32;20203;-51
2022/07/22 04:46:23;;;;;;;1.93;1.93;;;;;;;21.73;75.55;95768.44;4337903;32;20284;-56
2022/07/22 04:48:49;;;;;;;3.33;3.13;;;;;;;21.78;75.31;95776.28;4378036;32;20204;-55
2022/07/22 04:51:15;;;;;;;1.97;1.87;;;;;;;21.78;75.56;95773.59;4364205;32;20216;-55
2022/07/22 04:53:41;;;;;;;1.70;1.70;;;;;;;21.79;75.66;95767.03;4379299;32;20195;-51
2022/07/22 04:56:07;;;;;;;2.77;2.67;;;;;;;21.76;76.09;95771.22;4390326;32;20291;-51
2022/07/22 04:58:32;;;;;;;2.63;2.47;;;;;;;21.73;76.16;95769.25;4391014;32;20267;-52
2022/07/22 05:00:57;;;;;;;2.60;2.50;;;;;;;21.79;76.04;95772.44;4382163;32;20192;-53
2022/07/22 05:03:24;;;;;;;3.27;3.17;;;;;;;21.75;76.72;95772.38;4395043;32;20202;-53
2022/07/22 05:05:51;;;;;;;4.60;3.37;;;;;;;21.84;76.13;95780.25;4383488;32;20293;-54
2022/07/22 05:08:18;;;;;;;4.00;3.50;;;;;;;21.85;76.12;95771.78;4371537;32;20222;-54
2022/07/22 05:10:46;;;;;;;2.37;2.27;;;;;;;21.79;76.86;95773.22;4384908;32;20251;-55
2022/07/22 05:13:13;;;;;;;2.33;2.23;;;;;;;21.85;76.54;95769.09;4376542;32;20192;-55
2022/07/22 05:15:38;;;;;;;2.17;2.07;;;;;;;21.78;77.55;95771.66;4393126;32;20184;-53
2022/07/22 05:18:05;;;;;;;4.37;3.97;;;;;;;21.83;76.83;95768.66;4362629;32;20322;-51
2022/07/22 05:20:30;;;;;;;3.43;2.90;;;;;;;21.87;76.39;95766.03;4384234;32;20253;-54
2022/07/22 05:22:58;;;;;;;5.93;3.20;;;;;;;21.89;76.38;95766.47;4397688;32;20196;-55
2022/07/22 05:25:24;;;;;;;2.10;2.03;;;;;;;21.90;76.59;95768.81;4402204;32;20237;-52
2022/07/22 05:27:51;;;;;;;3.00;2.90;;;;;;;21.93;76.38;95762.72;4373898;32;20192;-52
2022/07/22 05:30:18;;;;;;;3.27;3.07;;;;;;;21.95;76.28;95759.66;4396390;32;20245;-55
2022/07/22 05:32:45;;;;;;;2.87;2.67;;;;;;;21.88;77.01;95771.09;4394408;32;20219;-54
2022/07/22 05:35:10;;;;;;;2.17;2.07;;;;;;;21.89;77.30;95769.19;4387831;32;20306;-55
2022/07/22 05:37:37;;;;;;;3.20;2.90;;;;;;;21.93;76.83;95768.13;4393506;32;20204;-54
2022/07/22 05:40:04;;;;;;;2.77;2.67;;;;;;;21.97;76.43;95760.09;4403925;32;20293;-49
2022/07/22 05:42:31;;;;;;;1.77;1.77;;;;;;;21.99;76.56;95763.22;4386990;32;20226;-54
2022/07/22 05:44:57;;;;;;;2.43;2.33;;;;;;;21.97;76.50;95762.78;4384094;32;20184;-52
2022/07/22 05:47:24;;;;;;;3.17;2.97;;;;;;;22.01;76.21;95760.19;4393365;32;20199;-52
2022/07/22 05:49:50;;;;;;;7.20;3.73;;;;;;;21.98;76.59;95764.34;4390283;32;20208;-54
2022/07/22 05:52:16;;;;;;;2.73;2.53;;;;;;;22.00;76.36;95766.72;4400284;32;20257;-54
2022/07/22 05:54:44;;;;;;;17.37;5.30;;;;;;;22.03;77.12;95755.22;4393030;32;20231;-56
2022/07/22 05:57:09;;;;;;;3.13;2.90;;;;;;;22.01;77.07;95757.50;4353310;32;20206;-55
2022/07/22 05:59:38;;;;;;;2.97;2.87;;;;;;;21.99;76.40;95760.53;4373508;32;20204;-53
2022/07/22 06:02:04;;;;;;;3.03;2.83;;;;;;;21.93;76.25;95756.53;4387707;32;20284;-52
2022/07/22 06:04:30;;;;;;;3.97;2.50;;;;;;;21.60;77.69;95759.69;4405996;32;20258;-55
2022/07/22 06:06:57;;;;;;;3.67;3.47;;;;;;;21.75;77.27;95756.16;4370927;32;20211;-54
2022/07/22 06:09:23;;;;;;;3.60;3.40;;;;;;;22.00;76.56;95755.91;4365730;32;20199;-54
2022/07/22 06:11:50;;;;;;;3.63;3.33;;;;;;;21.98;76.83;95753.56;4377386;32;20248;-52
2022/07/22 06:14:27;;;;;;;2.93;2.73;;;;;;;21.92;77.36;95763.84;4405792;32;20198;-53
2022/07/22 06:16:53;;;;;;;3.07;2.83;;;;;;;22.10;75.97;95766.16;4396375;32;20296;-56
2022/07/22 06:19:20;;;;;;;2.70;2.57;;;;;;;22.22;75.52;95763.31;4355453;32;20279;-53
2022/07/22 06:21:45;;;;;;;2.83;2.73;;;;;;;22.25;75.93;95768.00;4393495;32;20259;-55
2022/07/22 06:24:12;;;;;;;2.57;2.47;;;;;;;22.10;77.02;95761.53;4373954;32;20258;-53
2022/07/22 06:26:39;;;;;;;2.87;2.67;;;;;;;22.28;75.79;95767.28;4370462;32;20192;-54
2022/07/22 06:29:04;;;;;;;2.43;2.33;;;;;;;22.32;75.77;95762.72;4379927;32;20218;-55
2022/07/22 06:31:31;;;;;;;2.43;2.33;;;;;;;22.17;76.91;95763.59;4382400;32;20196;-55
2022/07/22 06:33:59;;;;;;;5.03;3.37;;;;;;;22.45;76.63;95761.41;4390417;32;20218;-54
2022/07/22 06:36:25;;;;;;;3.60;3.40;;;;;;;22.50;75.81;95761.13;4397241;32;20262;-49
2022/07/22 06:38:52;;;;;;;2.43;2.30;;;;;;;22.54;74.55;95763.91;4356191;32;20210;-51
2022/07/22 06:41:19;;;;;;;3.07;2.87;;;;;;;22.31;74.45;95758.47;4362794;32;20193;-52
2022/07/22 06:43:47;;;;;;;3.47;3.27;;;;;;;22.27;75.22;95765.72;4396457;32;20283;-51
2022/07/22 06:46:13;;;;;;;3.83;3.63;;;;;;;22.40;75.46;95759.03;4404335;32;20195;-55
2022/07/22 06:48:38;;;;;;;3.80;3.47;;;;;;;22.53;75.49;95763.13;4398266;32;20192;-52
2022/07/22 06:51:08;;;;;;;3.63;2.93;;;;;;;22.66;75.63;95765.66;4355995;32;20263;-54
2022/07/22 06:53:33;;;;;;;3.77;3.57;;;;;;;22.46;76.42;95760.28;4407453;32;20248;-56
2022/07/22 06:56:00;;;;;;;3.03;2.83;;;;;;;22.73;76.15;95763.09;4386372;32;20239;-55
2022/07/22 06:58:25;;;;;;;3.33;3.13;;;;;;;22.68;74.26;95766.06;4401840;32;20256;-51
2022/07/22 07:00:52;;;;;;;3.23;3.13;;;;;;;22.77;75.86;95758.50;4404965;32;20196;-55
2022/07/22 07:03:20;;;;;;;6.63;6.23;;;;;;;22.90;75.53;95760.69;4373659;32;20192;-55
2022/07/22 07:05:46;;;;;;;3.77;3.47;;;;;;;22.70;72.84;95758.38;4373078;32;20211;-54
2022/07/22 07:08:13;;;;;;;8.23;7.23;;;;;;;22.74;74.97;95753.81;4369581;32;20241;-58
2022/07/22 07:10:40;;;;;;;6.67;5.70;;;;;;;22.74;73.56;95756.53;4347517;32;20218;-52
2022/07/22 07:13:05;;;;;;;7.43;6.83;;;;;;;22.93;74.94;95756.50;4353540;32;20279;-53
2022/07/22 07:15:30;;;;;;;7.10;5.20;;;;;;;22.99;74.82;95756.97;4383100;32;20216;-53
2022/07/22 07:17:56;;;;;;;6.63;6.03;;;;;;;22.72;71.48;95756.09;4403655;32;20192;-55
2022/07/22 07:20:22;;;;;;;3.87;3.60;;;;;;;22.85;72.46;95752.12;4395612;32;20207;-55
2022/07/22 07:22:52;;;;;;;4.07;3.87;;;;;;;22.96;71.02;95753.06;4400207;32;20188;-55
2022/07/22 07:25:19;;;;;;;3.23;3.00;;;;;;;22.95;69.61;95755.00;4390965;32;20331;-55
2022/07/22 07:27:45;;;;;;;5.47;4.20;;;;;;;23.11;71.16;95746.72;4397587;32;20205;-51
2022/07/22 07:30:16;;;;;;;7.87;5.03;;;;;;;23.20;72.06;95741.84;4382996;32;20184;-53
2022/07/22 07:32:43;;;;;;;3.97;3.77;;;;;;;23.31;72.04;95752.84;4379568;32;20192;-57
2022/07/22 07:35:09;;;;;;;3.77;3.57;;;;;;;23.41;72.41;95746.03;4393613;32;20220;-55
2022/07/22 07:37:36;;;;;;;3.17;2.97;;;;;;;23.34;69.30;95754.81;4362019;32;20245;-56
2022/07/22 07:40:04;;;;;;;2.00;1.90;;;;;;;23.50;70.87;95757.38;4376265;32;20214;-56
2022/07/22 07:42:32;;;;;;;3.60;3.30;;;;;;;23.51;66.08;95750.81;4388642;32;20218;-56
2022/07/22 07:44:58;;;;;;;3.00;2.80;;;;;;;23.55;66.59;95746.25;4400455;32;20204;-53
2022/07/22 07:47:26;;;;;;;2.27;2.17;;;;;;;23.59;66.17;95747.87;4391895;32;20198;-54
2022/07/22 07:49:59;;;;;;;2.73;2.63;;;;;;;23.59;67.56;95744.38;4396782;32;20206;-54
2022/07/22 07:52:28;;;;;;;3.23;3.03;;;;;;;23.66;68.82;95741.00;4347336;32;20250;-55
2022/07/22 07:54:55;;;;;;;2.30;2.20;;;;;;;23.73;68.51;95738.34;4390624;32;20241;-54
2022/07/22 07:57:23;;;;;;;2.63;2.43;;;;;;;23.86;67.40;95739.72;4367144;32;20211;-53
2022/07/22 07:59:49;;;;;;;2.47;2.23;;;;;;;23.90;67.98;95735.13;4374150;32;20192;-58
2022/07/22 08:02:15;;;;;;;2.50;2.40;;;;;;;23.88;69.13;95738.19;4400332;32;20225;-52
2022/07/22 08:04:51;;;;;;;2.00;1.90;;;;;;;23.89;68.70;95730.84;4402201;32;20265;-54
2022/07/22 08:07:16;;;;;;;2.30;2.20;;;;;;;23.95;66.53;95732.84;4383831;32;20196;-56
2022/07/22 08:09:43;;;;;;;4.43;3.27;;;;;;;23.95;67.39;95730.13;4357782;32;20216;-55
2022/07/22 08:12:09;;;;;;;3.20;2.00;;;;;;;24.07;66.75;95725.63;4393694;32;20254;-55
2022/07/22 08:14:35;;;;;;;3.10;2.90;;;;;;;24.12;64.56;95731.47;4371438;32;20322;-55
2022/07/22 08:17:03;;;;;;;3.00;2.80;;;;;;;24.14;65.03;95733.81;4372357;32;20254;-56
2022/07/22 08:19:30;;;;;;;4.37;3.17;;;;;;;24.09;65.44;95723.34;4377507;32;20371;-58
2022/07/22 08:21:55;;;;;;;3.10;3.00;;;;;;;24.24;66.01;95727.78;4381692;32;20259;-54
2022/07/22 08:24:22;;;;;;;3.10;3.00;;;;;;;24.30;63.68;95727.09;4400935;32;20179;-55
2022/07/22 08:26:48;;;;;;;2.57;2.37;;;;;;;24.56;61.50;95725.37;4396956;32;20204;-55
2022/07/22 08:29:14;;;;;;;3.83;3.63;;;;;;;24.58;60.67;95728.50;4392364;32;20241;-51
2022/07/22 08:31:44;;;;;;;2.03;1.93;;;;;;;24.54;59.42;95725.75;4411092;32;20246;-55
2022/07/22 08:34:09;;;;;;;2.27;2.17;;;;;;;24.50;60.62;95726.91;4392693;32;20192;-55
2022/07/22 08:36:37;;;;;;;5.80;3.07;;;;;;;24.57;60.65;95724.25;4367083;32;20295;-55
2022/07/22 08:39:04;;;;;;;2.37;2.27;;;;;;;24.60;61.24;95724.28;4368366;32;20298;-55
2022/07/22 08:41:38;;;;;;;5.13;3.43;;;;;;;24.54;63.21;95720.34;4389597;32;20206;-55
2022/07/22 08:44:05;;;;;;;2.30;2.20;;;;;;;24.65;61.15;95718.53;4408321;32;20195;-54
2022/07/22 08:46:31;;;;;;;1.73;1.73;;;;;;;24.87;59.92;95721.41;4400556;32;20214;-56
2022/07/22 08:49:00;;;;;;;2.20;2.10;;;;;;;24.95;59.67;95718.41;4382130;32;20200;-54
2022/07/22 08:51:31;;;;;;;3.57;3.27;;;;;;;24.85;61.65;95716.38;4389952;32;20214;-55
2022/07/22 08:53:56;;;;;;;3.07;2.87;;;;;;;24.97;59.56;95709.87;4395193;32;20192;-56
2022/07/22 08:56:26;;;;;;;2.20;2.10;;;;;;;24.94;60.76;95713.34;4398050;32;20211;-53
2022/07/22 08:58:55;;;;;;;5.47;5.17;;;;;;;24.96;60.52;95703.66;4389881;32;20215;-53
2022/07/22 09:01:21;;;;;;;3.27;3.03;;;;;;;25.02;61.45;95700.63;4394522;32;20213;-56
2022/07/22 09:03:51;;;;;;;2.33;2.23;;;;;;;25.21;58.07;95692.22;4383560;32;20219;-54
2022/07/22 09:06:18;;;;;;;3.07;2.97;;;;;;;25.18;57.33;95693.75;4380572;32;20214;-56
2022/07/22 09:09:09;;;;;;;4.53;4.23;;;;;;;25.18;56.47;95692.97;4388691;32;20213;-54
2022/07/22 09:11:35;;;;;;;4.63;4.33;;;;;;;25.40;55.94;95680.28;4401338;32;20191;-52
2022/07/22 09:14:01;;;;;;;12.60;11.57;;;;;;;25.37;56.49;95686.47;4386820;32;20246;-55
2022/07/22 09:16:47;;;;;;;2.97;2.83;;;;;;;25.50;54.69;95676.88;4376585;32;20196;-56
2022/07/22 09:19:15;;;;;;;3.23;3.07;;;;;;;25.88;53.53;95687.16;4386852;32;20247;-55
2022/07/22 09:21:43;;;;;;;10.37;9.37;;;;;;;25.56;56.25;95672.63;4380657;32;20184;-50
2022/07/22 09:24:30;;;;;;;8.23;7.47;;;;;;;25.87;53.33;95690.25;4390339;32;20214;-53
2022/07/22 09:26:55;;;;;;;3.93;3.27;;;;;;;25.69;54.60;95679.31;4409684;32;20241;-55
2022/07/22 09:29:24;;;;;;;2.47;2.30;;;;;;;25.62;52.73;95677.34;4391012;32;20199;-55
2022/07/22 09:31:55;;;;;;;1.87;1.77;;;;;;;25.75;51.75;95677.03;4390903;32;20192;-55
2022/07/22 09:34:29;;;;;;;1.40;1.40;;;;;;;25.86;51.90;95678.59;4403918;32;20214;-55
2022/07/22 09:36:59;;;;;;;2.33;2.23;;;;;;;25.95;51.83;95670.88;4403897;32;20196;-55
2022/07/22 09:39:30;;;;;;;2.57;2.47;;;;;;;26.12;51.63;95668.59;4378069;32;20251;-55
2022/07/22 09:41:58;;;;;;;3.57;2.03;;;;;;;26.35;50.67;95672.56;4363140;32;20276;-56
2022/07/22 09:44:25;;;;;;;2.30;2.20;;;;;;;26.20;51.06;95667.44;4355985;32;20188;-54
2022/07/22 09:46:51;;;;;;;1.80;1.80;;;;;;;26.22;51.03;95663.16;4378900;32;20212;-55
2022/07/22 09:49:39;;;;;;;2.73;2.63;;;;;;;26.00;51.54;95656.87;4404855;32;20204;-56
2022/07/22 09:52:06;;;;;;;2.23;2.13;;;;;;;26.09;51.21;95653.81;4397399;32;20191;-54
2022/07/22 09:54:32;;;;;;;1.73;1.63;;;;;;;26.27;50.23;95651.13;4395934;32;20227;-57
2022/07/22 09:56:58;;;;;;;2.40;2.30;;;;;;;26.54;49.12;95657.81;4384354;32;20251;-56
2022/07/22 09:59:24;;;;;;;2.77;2.57;;;;;;;26.27;51.61;95659.28;4388980;32;20210;-56
2022/07/22 10:01:54;;;;;;;1.43;1.40;;;;;;;26.25;49.54;95646.06;4385958;32;20243;-55
2022/07/22 10:04:24;;;;;;;1.97;1.97;;;;;;;26.33;49.71;95655.84;4389631;32;20208;-55
2022/07/22 10:06:55;;;;;;;1.83;1.73;;;;;;;26.21;51.03;95649.94;4380184;32;20192;-56
2022/07/22 10:09:24;;;;;;;1.90;1.80;;;;;;;26.42;49.42;95643.78;4402212;32;20251;-57
2022/07/22 10:11:51;;;;;;;2.07;2.07;;;;;;;26.61;48.87;95640.69;4389054;32;20250;-56
2022/07/22 10:14:20;;;;;;;2.17;2.07;;;;;;;26.57;48.14;95637.22;4350080;32;20265;-54
2022/07/22 10:16:46;;;;;;;2.43;2.33;;;;;;;26.49;48.29;95628.25;4389258;32;20231;-55
2022/07/22 10:19:14;;;;;;;5.23;4.87;;;;;;;26.31;50.72;95636.41;4399311;32;20229;-52
2022/07/22 10:21:43;;;;;;;2.67;2.47;;;;;;;26.61;48.83;95630.56;4398664;32;20261;-56
2022/07/22 10:24:17;;;;;;;2.30;2.20;;;;;;;26.52;49.83;95634.88;4389742;32;20204;-56
2022/07/22 10:27:01;;;;;;;2.87;2.77;;;;;;;26.28;51.72;95634.41;4376218;32;20259;-54
2022/07/22 10:29:49;;;;;;;5.17;4.77;;;;;;;26.23;52.78;95623.91;4352000;32;20188;-54
2022/07/22 10:32:21;;;;;;;2.40;2.30;;;;;;;26.08;54.00;95624.28;4382620;32;20198;-55
2022/07/22 10:35:24;;;;;;;5.03;4.50;;;;;;;26.57;49.76;95615.44;4397482;32;20196;-55
2022/07/22 10:37:54;;;;;;;1.67;1.67;;;;;;;26.74;49.21;95613.88;4366787;32;20267;-50
2022/07/22 10:40:25;;;;;;;4.83;4.10;;;;;;;26.96;48.43;95612.69;4395641;32;20226;-53
2022/07/22 10:43:00;;;;;;;1.47;1.47;;;;;;;27.07;48.84;95613.44;4389535;32;20193;-52
2022/07/22 10:45:36;;;;;;;2.80;2.60;;;;;;;27.05;48.30;95604.88;4366915;32;20223;-55
2022/07/22 10:48:09;;;;;;;2.07;1.97;;;;;;;27.28;46.94;95607.16;4389388;32;20198;-53
2022/07/22 10:50:37;;;;;;;2.30;2.20;;;;;;;27.52;46.76;95606.31;4394604;32;20192;-55
2022/07/22 10:53:12;;;;;;;3.23;3.10;;;;;;;27.63;47.10;95606.31;4392528;32;20281;-55
2022/07/22 10:56:08;;;;;;;2.03;1.93;;;;;;;27.44;47.21;95609.44;4366617;32;20259;-54
2022/07/22 10:58:38;;;;;;;3.90;2.47;;;;;;;27.32;46.89;95603.25;4382123;32;20302;-56
2022/07/22 11:01:08;;;;;;;2.83;1.70;;;;;;;27.23;47.62;95599.38;4398499;32;20278;-54
2022/07/22 11:03:37;;;;;;;2.40;2.30;;;;;;;27.31;47.96;95596.25;4387758;32;20262;-55
2022/07/22 11:06:33;;;;;;;8.20;1.87;;;;;;;27.49;47.48;95600.88;4383886;32;20312;-56
2022/07/22 11:09:01;;;;;;;3.47;3.03;;;;;;;27.63;47.64;95596.19;4374431;32;20192;-56
2022/07/22 11:11:44;;;;;;;1.73;1.63;;;;;;;27.74;47.50;95601.56;4375366;32;20251;-54
2022/07/22 11:14:37;;;;;;;2.53;2.40;;;;;;;27.92;47.16;95598.75;4406529;32;20192;-55
2022/07/22 11:17:13;;;;;;;2.07;1.97;;;;;;;27.58;48.15;95603.97;4359624;32;20200;-55
2022/07/22 11:19:40;;;;;;;3.20;3.10;;;;;;;27.56;48.38;95600.84;4404559;32;20248;-54
2022/07/22 11:22:10;;;;;;;1.77;1.77;;;;;;;27.66;48.27;95595.37;4401764;32;20195;-56
2022/07/22 11:24:37;;;;;;;3.13;2.93;;;;;;;27.78;48.02;95585.97;4389957;32;20192;-56
2022/07/22 11:27:04;;;;;;;3.17;2.97;;;;;;;27.94;47.43;95588.22;4380169;32;20200;-54
2022/07/22 11:29:41;;;;;;;1.47;1.47;;;;;;;27.92;46.86;95588.59;4359264;32;20218;-56
2022/07/22 11:32:10;;;;;;;1.97;1.87;;;;;;;27.86;47.54;95590.19;4375970;32;20195;-55
2022/07/22 11:34:42;;;;;;;2.40;2.30;;;;;;;27.90;47.21;95587.44;4396742;32;20270;-55
2022/07/22 11:37:10;;;;;;;2.33;2.23;;;;;;;27.94;47.10;95580.03;4399028;32;20188;-53
2022/07/22 11:39:37;;;;;;;1.83;1.73;;;;;;;27.98;46.85;95578.06;4372398;32;20311;-56